Time;durP1;ratioP1;P1;durP2;ratioP2;P2;SDS_P1;SDS_P2;PMS_P1;PMS_P2;Temp;Humidity;BMP_temperature;BMP_pressure;BME280_temperature;BME280_humidity;BME280_pressure;Samples;Min_cycle;Max_cycle;Signal;HPM_P1;HPM_P2
2022/04/15 00:01:14;;;;;;;15.88;6.85;;;;;;;;;;5099232;28;20034;-74
2022/04/15 00:03:40;;;;;;;22.83;8.20;;;;;;;;;;5081076;28;20019;-74
2022/04/15 00:06:08;;;;;;;19.20;6.72;;;;;;;;;;5099180;28;20032;-74
2022/04/15 00:08:34;;;;;;;21.70;7.65;;;;;;;;;;5081094;28;20051;-74
2022/04/15 00:11:00;;;;;;;15.38;6.65;;;;;;;;;;5098683;28;20016;-74
2022/04/15 00:13:29;;;;;;;18.77;7.05;;;;;;;;;;5098993;28;20376;-74
2022/04/15 00:15:56;;;;;;;19.42;5.35;;;;;;;;;;5098825;28;20101;-74
2022/04/15 00:18:22;;;;;;;17.92;6.47;;;;;;;;;;5080423;28;20016;-74
2022/04/15 00:20:48;;;;;;;16.55;5.22;;;;;;;;;;5098893;28;20490;-74
2022/04/15 00:23:14;;;;;;;21.00;7.80;;;;;;;;;;5098790;28;20020;-74
2022/04/15 00:25:40;;;;;;;18.58;4.65;;;;;;;;;;5098718;28;20020;-74
2022/04/15 00:28:05;;;;;;;19.05;4.07;;;;;;;;;;5098695;28;20420;-74
2022/04/15 00:30:31;;;;;;;20.27;4.72;;;;;;;;;;5080635;28;20114;-74
2022/04/15 00:32:58;;;;;;;20.92;4.60;;;;;;;;;;5098668;28;20027;-74
2022/04/15 00:35:24;;;;;;;19.00;6.00;;;;;;;;;;5098470;28;20028;-74
2022/04/15 00:37:50;;;;;;;29.83;6.18;;;;;;;;;;5098514;28;20508;-74
2022/04/15 00:40:16;;;;;;;11.75;4.57;;;;;;;;;;5097863;28;20024;-74
2022/04/15 00:42:42;;;;;;;23.50;5.38;;;;;;;;;;5098447;28;20102;-74
2022/04/15 00:45:11;;;;;;;13.23;5.25;;;;;;;;;;5080228;28;20490;-74
2022/04/15 00:47:52;;;;;;;34.60;6.63;;;;;;;;;;5079570;28;20081;-74
2022/04/15 00:50:19;;;;;;;22.90;3.83;;;;;;;;;;5098053;28;20354;-74
2022/04/15 00:52:47;;;;;;;16.25;4.32;;;;;;;;;;5079982;28;20016;-74
2022/04/15 00:55:13;;;;;;;14.05;4.47;;;;;;;;;;5079756;28;20039;-74
2022/04/15 00:57:44;;;;;;;15.13;3.72;;;;;;;;;;5080063;28;20016;-74
2022/04/15 01:00:11;;;;;;;16.08;3.63;;;;;;;;;;5097938;28;20016;-74
2022/04/15 01:02:37;;;;;;;19.33;5.80;;;;;;;;;;5097391;28;20047;-74
2022/04/15 01:05:07;;;;;;;20.27;3.65;;;;;;;;;;5098002;28;20063;-74
2022/04/15 01:07:33;;;;;;;19.20;4.05;;;;;;;;;;5097946;28;20086;-74
2022/04/15 01:09:59;;;;;;;26.20;3.80;;;;;;;;;;5078948;28;20020;-74
2022/04/15 01:12:28;;;;;;;9.90;4.10;;;;;;;;;;5097495;28;20372;-74
2022/04/15 01:14:58;;;;;;;19.35;5.63;;;;;;;;;;5097622;28;20029;-74
2022/04/15 01:17:24;;;;;;;;;;;;;;;;;;5097498;28;20030;-73
2022/04/15 01:19:50;;;;;;;24.65;5.32;;;;;;;;;;5097144;28;20284;-73
2022/04/15 01:22:17;;;;;;;18.15;4.18;;;;;;;;;;5096800;28;20433;-74
2022/04/15 01:24:43;;;;;;;17.77;3.75;;;;;;;;;;5095224;28;20044;-74
2022/04/15 01:27:09;;;;;;;26.63;6.35;;;;;;;;;;5095582;28;20387;-73
2022/04/15 01:29:39;;;;;;;28.55;6.10;;;;;;;;;;5060210;28;20024;-73
2022/04/15 01:32:06;;;;;;;20.77;4.47;;;;;;;;;;5078064;28;20432;-74
2022/04/15 01:34:32;;;;;;;16.67;4.10;;;;;;;;;;5103066;22;20197;-74
2022/04/15 01:36:59;;;;;;;25.65;5.85;;;;;;;;;;5095089;28;20418;-74
2022/04/15 01:39:26;;;;;;;13.20;4.65;;;;;;;;;;5095918;28;20054;-74
2022/04/15 01:41:52;;;;;;;19.48;6.18;;;;;;;;;;5095823;28;20057;-75
2022/04/15 01:44:18;;;;;;;14.77;4.13;;;;;;;;;;5095256;28;20023;-73
2022/04/15 01:46:44;;;;;;;17.98;4.55;;;;;;;;;;5095515;28;20031;-74
2022/04/15 01:49:10;;;;;;;17.77;3.72;;;;;;;;;;5095788;28;20016;-74
2022/04/15 01:51:38;;;;;;;17.00;3.78;;;;;;;;;;5096362;28;20027;-73
2022/04/15 01:54:04;;;;;;;17.08;4.10;;;;;;;;;;5077985;28;20032;-74
2022/04/15 01:56:30;;;;;;;12.65;3.13;;;;;;;;;;5096245;28;20032;-74
2022/04/15 01:58:56;;;;;;;13.70;3.78;;;;;;;;;;5096124;28;20464;-74
2022/04/15 02:01:22;;;;;;;25.40;3.35;;;;;;;;;;5095663;28;20061;-74
2022/04/15 02:03:48;;;;;;;15.60;2.78;;;;;;;;;;5095978;28;20027;-74
2022/04/15 02:06:15;;;;;;;16.95;3.40;;;;;;;;;;5095332;28;20421;-74
2022/04/15 02:08:41;;;;;;;9.32;3.05;;;;;;;;;;5061257;28;20422;-73
2022/04/15 02:11:07;;;;;;;16.77;4.15;;;;;;;;;;5096505;28;20024;-73
2022/04/15 02:13:33;;;;;;;21.27;4.05;;;;;;;;;;5096126;28;20488;-73
2022/04/15 02:15:59;;;;;;;13.95;2.35;;;;;;;;;;5099328;28;20028;-74
2022/04/15 02:18:26;;;;;;;15.82;2.67;;;;;;;;;;5099349;28;20020;-75
2022/04/15 02:20:52;;;;;;;21.27;3.85;;;;;;;;;;5099220;28;20020;-74
2022/04/15 02:23:18;;;;;;;14.60;3.08;;;;;;;;;;5064673;28;20023;-74
2022/04/15 02:25:44;;;;;;;15.00;2.10;;;;;;;;;;5099655;28;20413;-74
2022/04/15 02:28:10;;;;;;;13.45;2.85;;;;;;;;;;5081496;28;20449;-74
2022/04/15 02:30:36;;;;;;;12.07;2.33;;;;;;;;;;5100038;28;20031;-74
2022/04/15 02:33:02;;;;;;;23.63;4.68;;;;;;;;;;5099584;28;20024;-76
2022/04/15 02:35:28;;;;;;;9.48;2.17;;;;;;;;;;5064694;28;20078;-73
2022/04/15 02:37:54;;;;;;;31.30;3.63;;;;;;;;;;5099907;28;20409;-74
2022/04/15 02:40:20;;;;;;;13.40;2.03;;;;;;;;;;5099550;28;20027;-74
2022/04/15 02:42:46;;;;;;;7.45;2.65;;;;;;;;;;5064175;28;20016;-73
2022/04/15 02:45:12;;;;;;;18.08;5.70;;;;;;;;;;5080890;28;20024;-75
2022/04/15 02:47:39;;;;;;;13.95;2.85;;;;;;;;;;5064127;28;20372;-74
2022/04/15 02:50:05;;;;;;;11.75;2.22;;;;;;;;;;5080221;28;20133;-76
2022/04/15 02:52:32;;;;;;;17.35;2.78;;;;;;;;;;5097466;28;20024;-74
2022/04/15 02:54:58;;;;;;;10.60;2.95;;;;;;;;;;5095683;28;20393;-75
2022/04/15 02:57:24;;;;;;;7.13;1.70;;;;;;;;;;5096959;28;20023;-75
2022/04/15 02:59:50;;;;;;;9.55;1.98;;;;;;;;;;5096300;28;20061;-74
2022/04/15 03:02:16;;;;;;;16.98;2.60;;;;;;;;;;5078627;28;20023;-76
2022/04/15 03:04:42;;;;;;;11.85;2.20;;;;;;;;;;5077637;28;20449;-73
2022/04/15 03:07:08;;;;;;;40.63;3.45;;;;;;;;;;5077635;28;20024;-74
2022/04/15 03:09:35;;;;;;;10.60;4.03;;;;;;;;;;5061076;28;20497;-74
2022/04/15 03:12:01;;;;;;;11.98;3.55;;;;;;;;;;5095521;28;20162;-74
2022/04/15 03:14:27;;;;;;;11.73;2.38;;;;;;;;;;5096320;28;20106;-73
2022/04/15 03:16:53;;;;;;;23.27;5.03;;;;;;;;;;5096996;28;20182;-73
2022/04/15 03:19:19;;;;;;;14.57;2.20;;;;;;;;;;5096814;28;20020;-73
2022/04/15 03:21:45;;;;;;;11.48;2.58;;;;;;;;;;5079826;28;20109;-73
2022/04/15 03:24:11;;;;;;;42.95;9.27;;;;;;;;;;5078581;28;20020;-73
2022/04/15 03:26:37;;;;;;;10.05;1.65;;;;;;;;;;5097439;28;20457;-74
2022/04/15 03:29:04;;;;;;;12.13;1.98;;;;;;;;;;5097779;28;20097;-73
2022/04/15 03:31:30;;;;;;;15.40;2.70;;;;;;;;;;5097216;28;20020;-75
2022/04/15 03:33:56;;;;;;;18.15;2.78;;;;;;;;;;5080498;28;20028;-74
2022/04/15 03:36:22;;;;;;;7.95;2.08;;;;;;;;;;5097184;28;20122;-74
2022/04/15 03:38:48;;;;;;;11.90;2.45;;;;;;;;;;5098087;28;20103;-75
2022/04/15 03:41:14;;;;;;;7.47;3.80;;;;;;;;;;5079182;28;20031;-73
2022/04/15 03:43:40;;;;;;;4.88;0.75;;;;;;;;;;5097487;28;20020;-73
2022/04/15 03:46:06;;;;;;;27.75;5.57;;;;;;;;;;5078726;28;20089;-74
2022/04/15 03:48:33;;;;;;;17.80;3.40;;;;;;;;;;5096714;28;20012;-73
2022/04/15 03:50:59;;;;;;;9.57;1.25;;;;;;;;;;5096364;28;20070;-74
2022/04/15 03:53:25;;;;;;;9.40;1.60;;;;;;;;;;5096335;28;20047;-73
2022/04/15 03:55:51;;;;;;;8.43;1.77;;;;;;;;;;5096894;28;20035;-73
2022/04/15 03:58:17;;;;;;;10.88;1.90;;;;;;;;;;5095722;28;20016;-75
2022/04/15 04:00:44;;;;;;;9.43;2.03;;;;;;;;;;5095867;28;20322;-74
2022/04/15 04:03:10;;;;;;;18.73;3.15;;;;;;;;;;5096076;28;20027;-76
2022/04/15 04:05:36;;;;;;;16.40;3.95;;;;;;;;;;5077056;28;20019;-75
2022/04/15 04:08:02;;;;;;;8.95;1.27;;;;;;;;;;5095187;28;20422;-76
2022/04/15 04:10:28;;;;;;;19.17;2.85;;;;;;;;;;5077639;28;20035;-74
2022/04/15 04:12:54;;;;;;;7.70;2.75;;;;;;;;;;5096419;28;20058;-74
2022/04/15 04:15:20;;;;;;;6.97;2.15;;;;;;;;;;5096579;28;20055;-74
2022/04/15 04:17:48;;;;;;;16.52;2.15;;;;;;;;;;5095752;28;20103;-75
2022/04/15 04:20:16;;;;;;;5.90;1.58;;;;;;;;;;5091478;28;20020;-74
2022/04/15 04:22:42;;;;;;;36.13;5.55;;;;;;;;;;5094822;28;20085;-74
2022/04/15 04:25:08;;;;;;;52.08;9.50;;;;;;;;;;5093699;28;20441;-74
2022/04/15 04:27:36;;;;;;;26.08;5.05;;;;;;;;;;5075175;28;20012;-74
2022/04/15 04:30:03;;;;;;;11.35;2.67;;;;;;;;;;5095052;28;20020;-75
2022/04/15 04:32:29;;;;;;;14.63;6.15;;;;;;;;;;5095354;28;20024;-74
2022/04/15 04:34:55;;;;;;;29.58;6.65;;;;;;;;;;5095057;28;20092;-75
2022/04/15 04:37:26;;;;;;;12.07;2.38;;;;;;;;;;5093262;28;20024;-74
2022/04/15 04:39:53;;;;;;;15.60;3.22;;;;;;;;;;5093942;28;20146;-74
2022/04/15 04:42:22;;;;;;;18.75;5.63;;;;;;;;;;5076251;28;20024;-74
2022/04/15 04:44:49;;;;;;;19.73;2.63;;;;;;;;;;5059210;28;20024;-73
2022/04/15 04:47:15;;;;;;;18.90;3.80;;;;;;;;;;5076512;28;20023;-76
2022/04/15 04:49:41;;;;;;;16.67;3.67;;;;;;;;;;5095817;28;20366;-76
2022/04/15 04:52:08;;;;;;;20.38;3.47;;;;;;;;;;5095169;28;20220;-74
2022/04/15 04:54:34;;;;;;;14.90;2.33;;;;;;;;;;5076462;28;20024;-75
2022/04/15 04:57:00;;;;;;;5.80;2.28;;;;;;;;;;5094632;28;20039;-73
2022/04/15 04:59:28;;;;;;;9.48;1.60;;;;;;;;;;5077815;28;20099;-74
2022/04/15 05:01:54;;;;;;;9.07;1.90;;;;;;;;;;5095565;28;20392;-75
2022/04/15 05:04:20;;;;;;;8.40;1.90;;;;;;;;;;5093949;28;20123;-74
2022/04/15 05:06:46;;;;;;;9.30;2.72;;;;;;;;;;5060040;28;20016;-74
2022/04/15 05:09:12;;;;;;;15.35;1.90;;;;;;;;;;5076406;28;20496;-74
2022/04/15 05:11:38;;;;;;;22.20;2.92;;;;;;;;;;5075756;28;20127;-74
2022/04/15 05:14:05;;;;;;;15.93;3.70;;;;;;;;;;5093377;28;20279;-74
2022/04/15 05:16:31;;;;;;;12.75;4.35;;;;;;;;;;5075179;28;20032;-76
2022/04/15 05:18:57;;;;;;;30.33;6.20;;;;;;;;;;5094248;28;20012;-73
2022/04/15 05:21:23;;;;;;;9.00;2.17;;;;;;;;;;5077079;28;20094;-75
2022/04/15 05:23:50;;;;;;;38.22;6.35;;;;;;;;;;5077360;28;20042;-76
2022/04/15 05:26:16;;;;;;;15.15;2.50;;;;;;;;;;5094655;28;20040;-73
2022/04/15 05:28:42;;;;;;;8.45;1.60;;;;;;;;;;5076524;28;20066;-74
2022/04/15 05:31:08;;;;;;;16.05;2.47;;;;;;;;;;5094438;28;20020;-73
2022/04/15 05:33:35;;;;;;;11.48;2.33;;;;;;;;;;5076081;28;20433;-73
2022/04/15 05:36:02;;;;;;;39.70;6.00;;;;;;;;;;5094895;28;20084;-72
2022/04/15 05:38:28;;;;;;;25.02;3.10;;;;;;;;;;5094726;28;20028;-73
2022/04/15 05:40:53;;;;;;;69.25;16.60;;;;;;;;;;5097933;28;20016;-74
2022/04/15 05:43:20;;;;;;;26.38;7.03;;;;;;;;;;5085506;28;20043;-74
2022/04/15 05:45:46;;;;;;;44.15;7.43;;;;;;;;;;5094792;28;20039;-75
2022/04/15 05:48:12;;;;;;;29.27;6.97;;;;;;;;;;5092656;28;20038;-75
2022/04/15 05:50:38;;;;;;;40.72;9.70;;;;;;;;;;5058090;28;20390;-75
2022/04/15 05:53:04;;;;;;;34.60;8.77;;;;;;;;;;5092564;28;20020;-75
2022/04/15 05:55:30;;;;;;;17.83;2.70;;;;;;;;;;5092710;28;20071;-74
2022/04/15 05:58:07;;;;;;;28.92;4.50;;;;;;;;;;5074924;28;20092;-74
2022/04/15 06:00:40;;;;;;;14.63;4.10;;;;;;;;;;5060135;28;20020;-73
2022/04/15 06:03:09;;;;;;;43.92;6.07;;;;;;;;;;5058880;28;20106;-74
2022/04/15 06:05:35;;;;;;;28.73;4.82;;;;;;;;;;5092965;28;20032;-73
2022/04/15 06:08:01;;;;;;;16.00;3.65;;;;;;;;;;5075012;28;20012;-74
2022/04/15 06:10:27;;;;;;;31.85;4.75;;;;;;;;;;5076025;28;20044;-75
2022/04/15 06:15:41;;;;;;;32.25;6.82;;;;;;;;;;5094487;28;20071;-74
2022/04/15 06:18:07;;;;;;;14.57;2.63;;;;;;;;;;5095810;28;20016;-73
2022/04/15 06:20:35;;;;;;;18.48;3.33;;;;;;;;;;5077222;28;20032;-74
2022/04/15 06:23:04;;;;;;;13.02;2.50;;;;;;;;;;5094334;28;20260;-73
2022/04/15 06:25:30;;;;;;;7.68;3.20;;;;;;;;;;5076392;28;20012;-73
2022/04/15 06:27:56;;;;;;;12.80;3.65;;;;;;;;;;5094894;28;20115;-74
2022/04/15 06:30:21;;;;;;;9.77;2.33;;;;;;;;;;5094520;28;20437;-74
2022/04/15 06:32:48;;;;;;;17.52;2.85;;;;;;;;;;5076348;28;20024;-73
2022/04/15 06:35:14;;;;;;;15.98;3.25;;;;;;;;;;5095088;28;20012;-73
2022/04/15 06:37:40;;;;;;;18.67;3.00;;;;;;;;;;5076885;28;20406;-73
2022/04/15 06:40:07;;;;;;;16.75;3.95;;;;;;;;;;5094543;28;20024;-73
2022/04/15 06:42:35;;;;;;;10.32;2.38;;;;;;;;;;5080805;22;20033;-73
2022/04/15 06:45:06;;;;;;;12.90;3.08;;;;;;;;;;5072126;28;20060;-73
2022/04/15 06:47:32;;;;;;;14.52;3.20;;;;;;;;;;5055725;28;20078;-73
2022/04/15 06:49:58;;;;;;;18.50;4.65;;;;;;;;;;5074327;28;20024;-74
2022/04/15 06:52:24;;;;;;;33.25;4.40;;;;;;;;;;5073825;28;20016;-73
2022/04/15 06:54:52;;;;;;;11.18;2.40;;;;;;;;;;5056443;28;20323;-74
2022/04/15 06:57:18;;;;;;;14.15;3.97;;;;;;;;;;5072838;28;20032;-73
2022/04/15 06:59:45;;;;;;;14.00;2.42;;;;;;;;;;5057387;28;20024;-73
2022/04/15 07:02:11;;;;;;;6.28;2.38;;;;;;;;;;5060053;28;20020;-73
2022/04/15 07:04:37;;;;;;;11.02;2.90;;;;;;;;;;5043723;28;20035;-73
2022/04/15 07:07:03;;;;;;;10.15;2.38;;;;;;;;;;5077752;28;20029;-73
2022/04/15 07:09:29;;;;;;;11.93;3.25;;;;;;;;;;5077634;28;20024;-73
2022/04/15 07:11:56;;;;;;;13.38;2.67;;;;;;;;;;5078085;28;20021;-73
2022/04/15 07:14:22;;;;;;;10.63;2.13;;;;;;;;;;5077997;28;20023;-73
2022/04/15 07:16:48;;;;;;;12.90;2.72;;;;;;;;;;5077728;28;20033;-74
2022/04/15 07:19:15;;;;;;;17.10;3.85;;;;;;;;;;5076572;28;20028;-73
2022/04/15 07:21:43;;;;;;;15.00;4.38;;;;;;;;;;5077864;28;20028;-74
2022/04/15 07:24:09;;;;;;;12.27;2.80;;;;;;;;;;5076574;28;20023;-73
2022/04/15 07:26:35;;;;;;;11.10;2.20;;;;;;;;;;5058628;28;20220;-73
2022/04/15 07:29:01;;;;;;;6.50;2.47;;;;;;;;;;5076267;28;20017;-73
2022/04/15 07:31:27;;;;;;;8.52;2.45;;;;;;;;;;5076306;28;20086;-73
2022/04/15 07:33:53;;;;;;;13.98;3.45;;;;;;;;;;5075684;28;20021;-73
2022/04/15 07:36:43;;;;;;;13.00;2.92;;;;;;;;;;5075960;28;20434;-74
2022/04/15 07:39:10;;;;;;;11.48;3.53;;;;;;;;;;5058470;28;20013;-74
2022/04/15 07:41:37;;;;;;;14.95;2.72;;;;;;;;;;5078186;28;20025;-73
2022/04/15 07:44:03;;;;;;;10.68;1.95;;;;;;;;;;5077700;28;20024;-73
2022/04/15 07:46:30;;;;;;;9.00;2.42;;;;;;;;;;5077164;28;20038;-74
2022/04/15 07:48:56;;;;;;;10.70;2.95;;;;;;;;;;5059379;28;20032;-75
2022/04/15 07:51:22;;;;;;;17.40;3.92;;;;;;;;;;5075932;28;20024;-74
2022/04/15 07:53:48;;;;;;;7.43;1.92;;;;;;;;;;5077447;28;20035;-73
2022/04/15 07:56:14;;;;;;;8.98;2.15;;;;;;;;;;5058319;28;20040;-74
2022/04/15 07:58:40;;;;;;;11.25;4.13;;;;;;;;;;5059191;28;20020;-74
2022/04/15 08:01:07;;;;;;;9.32;2.47;;;;;;;;;;5076609;28;20066;-73
2022/04/15 08:03:33;;;;;;;15.68;4.45;;;;;;;;;;5059383;28;20103;-73
2022/04/15 08:05:59;;;;;;;14.35;2.83;;;;;;;;;;5076565;28;20131;-73
2022/04/15 08:08:26;;;;;;;11.48;2.97;;;;;;;;;;5076965;28;20017;-73
2022/04/15 08:10:52;;;;;;;23.08;3.08;;;;;;;;;;5075647;28;20021;-73
2022/04/15 08:13:18;;;;;;;15.73;3.25;;;;;;;;;;5076695;28;20058;-74
2022/04/15 08:15:44;;;;;;;28.73;3.80;;;;;;;;;;5077600;28;20040;-73
2022/04/15 08:18:10;;;;;;;11.60;2.55;;;;;;;;;;5058709;28;20083;-74
2022/04/15 08:20:36;;;;;;;7.22;2.20;;;;;;;;;;5077698;28;20314;-74
2022/04/15 08:23:03;;;;;;;69.15;9.77;;;;;;;;;;5077718;28;20338;-74
2022/04/15 08:25:30;;;;;;;10.73;2.33;;;;;;;;;;5075960;28;20079;-75
2022/04/15 08:27:56;;;;;;;28.10;3.58;;;;;;;;;;5077178;28;20096;-74
2022/04/15 08:30:22;;;;;;;8.68;2.38;;;;;;;;;;5077239;28;20027;-74
2022/04/15 08:32:51;;;;;;;12.82;2.47;;;;;;;;;;5077190;28;20377;-74
2022/04/15 08:35:17;;;;;;;12.55;2.90;;;;;;;;;;5076927;28;20090;-74
2022/04/15 08:37:43;;;;;;;11.50;2.67;;;;;;;;;;5076785;28;20430;-74
2022/04/15 08:40:11;;;;;;;10.70;2.70;;;;;;;;;;5076595;28;20377;-73
2022/04/15 08:42:39;;;;;;;12.35;3.70;;;;;;;;;;5077148;28;20032;-73
2022/04/15 08:45:06;;;;;;;12.65;3.58;;;;;;;;;;5075422;28;20094;-73
2022/04/15 08:47:32;;;;;;;28.65;4.18;;;;;;;;;;5075427;28;20103;-73
2022/04/15 08:49:58;;;;;;;11.68;4.50;;;;;;;;;;5077057;28;20330;-74
2022/04/15 08:52:25;;;;;;;12.98;3.15;;;;;;;;;;5076797;28;20028;-74
2022/04/15 08:54:52;;;;;;;21.13;2.90;;;;;;;;;;5076551;28;20028;-74
2022/04/15 08:57:18;;;;;;;9.85;2.78;;;;;;;;;;5058813;28;20032;-74
2022/04/15 08:59:44;;;;;;;15.15;3.10;;;;;;;;;;5076489;28;20020;-74
2022/04/15 09:02:11;;;;;;;9.18;1.77;;;;;;;;;;5077010;28;20024;-73
2022/04/15 09:04:37;;;;;;;13.10;3.67;;;;;;;;;;5076434;28;20027;-73
2022/04/15 09:07:03;;;;;;;23.42;6.57;;;;;;;;;;5077165;28;20430;-74
2022/04/15 09:09:30;;;;;;;19.08;4.45;;;;;;;;;;5076597;28;20063;-73
2022/04/15 09:11:57;;;;;;;13.27;2.83;;;;;;;;;;5077142;28;20407;-74
2022/04/15 09:14:24;;;;;;;9.77;2.38;;;;;;;;;;5059639;28;20074;-74
2022/04/15 09:16:50;;;;;;;9.38;3.53;;;;;;;;;;5076328;28;20040;-73
2022/04/15 09:19:17;;;;;;;11.57;3.85;;;;;;;;;;5078549;28;20012;-74
2022/04/15 09:21:54;;;;;;;11.23;2.28;;;;;;;;;;5077356;28;20024;-74
2022/04/15 09:24:33;;;;;;;11.70;2.67;;;;;;;;;;5077396;28;20025;-73
2022/04/15 09:27:06;;;;;;;19.55;3.10;;;;;;;;;;5075207;28;20047;-73
2022/04/15 09:29:35;;;;;;;12.40;2.33;;;;;;;;;;5077071;28;20020;-74
2022/04/15 09:32:05;;;;;;;7.77;2.30;;;;;;;;;;5076912;28;20452;-74
2022/04/15 09:34:31;;;;;;;20.40;2.20;;;;;;;;;;5077813;28;20023;-74
2022/04/15 09:36:57;;;;;;;8.30;2.90;;;;;;;;;;5076976;28;20088;-74
2022/04/15 09:39:23;;;;;;;8.18;2.78;;;;;;;;;;5076738;28;20122;-74
2022/04/15 09:41:56;;;;;;;14.02;2.90;;;;;;;;;;5059212;28;20071;-74
2022/04/15 09:44:22;;;;;;;9.35;2.40;;;;;;;;;;5058906;28;20020;-75
2022/04/15 09:46:52;;;;;;;18.02;2.58;;;;;;;;;;5076954;28;20116;-74
2022/04/15 09:49:18;;;;;;;17.33;2.30;;;;;;;;;;5076817;28;20024;-75
2022/04/15 09:51:51;;;;;;;17.95;2.80;;;;;;;;;;5041909;28;20093;-75
2022/04/15 09:54:24;;;;;;;10.48;2.75;;;;;;;;;;5076168;28;20052;-74
2022/04/15 09:56:51;;;;;;;19.13;2.95;;;;;;;;;;5076482;28;20082;-74
2022/04/15 09:59:20;;;;;;;15.32;4.20;;;;;;;;;;5076110;28;20017;-74
2022/04/15 10:01:48;;;;;;;10.40;3.10;;;;;;;;;;5076558;28;20036;-73
2022/04/15 10:04:14;;;;;;;14.13;4.28;;;;;;;;;;5076275;28;20107;-72
2022/04/15 10:06:41;;;;;;;10.50;2.90;;;;;;;;;;5057965;28;20021;-74
2022/04/15 10:09:11;;;;;;;12.77;3.05;;;;;;;;;;5058682;28;20020;-74
2022/04/15 10:11:47;;;;;;;7.15;2.08;;;;;;;;;;5076745;28;20440;-73
2022/04/15 10:14:14;;;;;;;26.08;5.07;;;;;;;;;;5075950;28;20119;-74
2022/04/15 10:16:42;;;;;;;11.88;3.55;;;;;;;;;;5076944;28;20032;-74
2022/04/15 10:19:08;;;;;;;22.05;4.88;;;;;;;;;;5075564;28;20108;-74
2022/04/15 10:21:36;;;;;;;19.30;5.60;;;;;;;;;;5076658;28;20035;-75
2022/04/15 10:24:03;;;;;;;12.35;4.03;;;;;;;;;;5076686;28;20021;-74
2022/04/15 10:26:38;;;;;;;20.88;3.92;;;;;;;;;;5076599;28;20017;-74
2022/04/15 10:29:05;;;;;;;14.93;2.85;;;;;;;;;;5076718;28;20075;-74
2022/04/15 10:31:39;;;;;;;14.85;2.78;;;;;;;;;;5075785;28;20032;-75
2022/04/15 10:34:15;;;;;;;11.88;2.58;;;;;;;;;;5076432;28;20021;-75
2022/04/15 10:36:44;;;;;;;16.60;3.05;;;;;;;;;;5083275;28;20037;-75
2022/04/15 10:39:11;;;;;;;10.87;2.80;;;;;;;;;;5062838;28;20374;-74
2022/04/15 10:41:43;;;;;;;16.67;3.05;;;;;;;;;;5061981;28;20262;-75
2022/04/15 10:44:13;;;;;;;8.90;4.25;;;;;;;;;;5062767;28;20055;-74
2022/04/15 10:46:38;;;;;;;8.85;2.90;;;;;;;;;;5079658;28;20031;-74
2022/04/15 10:49:34;;;;;;;10.73;4.22;;;;;;;;;;5080276;28;20028;-75
2022/04/15 10:52:01;;;;;;;17.50;4.68;;;;;;;;;;5079222;28;20079;-74
2022/04/15 10:54:31;;;;;;;12.57;4.40;;;;;;;;;;5078840;28;20368;-74
2022/04/15 10:57:02;;;;;;;16.35;6.43;;;;;;;;;;5079613;28;20032;-74
2022/04/15 11:02:27;;;;;;;22.88;5.65;;;;;;;;;;5080107;28;20017;-74
2022/04/15 11:04:53;;;;;;;9.95;2.88;;;;;;;;;;5061915;28;20119;-74
2022/04/15 11:07:26;;;;;;;19.35;4.25;;;;;;;;;;5061627;28;20027;-75
2022/04/15 11:09:52;;;;;;;12.05;3.22;;;;;;;;;;5079966;28;20481;-73
2022/04/15 11:12:33;;;;;;;18.77;3.17;;;;;;;;;;5080030;28;20028;-74
2022/04/15 11:14:59;;;;;;;18.40;6.38;;;;;;;;;;5079915;28;20103;-73
2022/04/15 11:17:38;;;;;;;41.20;9.02;;;;;;;;;;5079126;28;20419;-73
2022/04/15 11:20:06;;;;;;;19.33;7.00;;;;;;;;;;5061718;28;20024;-74
2022/04/15 11:22:33;;;;;;;19.55;6.70;;;;;;;;;;5061757;28;20078;-73
2022/04/15 11:24:59;;;;;;;22.90;5.90;;;;;;;;;;5078685;28;20067;-73
2022/04/15 11:27:25;;;;;;;20.40;5.68;;;;;;;;;;5081327;28;20017;-73
2022/04/15 11:29:51;;;;;;;17.30;5.22;;;;;;;;;;5080891;28;20449;-74
2022/04/15 11:32:17;;;;;;;27.05;6.28;;;;;;;;;;5046269;28;20364;-74
2022/04/15 11:34:43;;;;;;;19.60;5.68;;;;;;;;;;5079648;28;20024;-73
2022/04/15 11:37:09;;;;;;;13.43;4.00;;;;;;;;;;5078905;28;20033;-73
2022/04/15 11:39:36;;;;;;;29.38;6.25;;;;;;;;;;5079396;28;20031;-74
2022/04/15 11:42:06;;;;;;;17.98;4.97;;;;;;;;;;5079761;28;20031;-74
2022/04/15 11:44:32;;;;;;;16.98;5.00;;;;;;;;;;5079292;28;20024;-74
2022/04/15 11:47:19;;;;;;;18.58;4.55;;;;;;;;;;5061260;28;20028;-74
2022/04/15 11:49:46;;;;;;;19.38;3.97;;;;;;;;;;5079128;28;20337;-74
2022/04/15 11:52:22;;;;;;;13.88;5.18;;;;;;;;;;5061631;28;20024;-74
2022/04/15 11:54:48;;;;;;;16.00;3.35;;;;;;;;;;5079630;28;20073;-74
2022/04/15 11:57:14;;;;;;;15.52;5.90;;;;;;;;;;5060798;28;20119;-73
2022/04/15 11:59:41;;;;;;;16.58;3.92;;;;;;;;;;5079075;28;20016;-73
2022/04/15 12:02:07;;;;;;;14.63;6.38;;;;;;;;;;5063918;28;20020;-73
2022/04/15 12:04:33;;;;;;;24.23;7.40;;;;;;;;;;5080205;28;20052;-74
2022/04/15 12:06:59;;;;;;;22.98;9.48;;;;;;;;;;5078436;28;20020;-74
2022/04/15 12:09:25;;;;;;;18.17;6.13;;;;;;;;;;5078393;28;20019;-74
2022/04/15 12:11:52;;;;;;;25.98;8.30;;;;;;;;;;5078857;28;20044;-73
2022/04/15 12:14:18;;;;;;;20.67;7.22;;;;;;;;;;5077190;28;20115;-73
2022/04/15 12:16:45;;;;;;;31.15;6.75;;;;;;;;;;5079044;28;20089;-74
2022/04/15 12:19:11;;;;;;;19.92;6.18;;;;;;;;;;5061023;28;20021;-73
2022/04/15 12:21:37;;;;;;;16.90;7.10;;;;;;;;;;5060785;28;20465;-73
2022/04/15 12:24:09;;;;;;;16.67;5.68;;;;;;;;;;5078683;28;20073;-73
2022/04/15 12:26:41;;;;;;;18.73;5.53;;;;;;;;;;5079426;28;20023;-74
2022/04/15 12:31:53;;;;;;;29.48;5.05;;;;;;;;;;5078244;28;20337;-73
2022/04/15 12:34:30;;;;;;;34.45;10.23;;;;;;;;;;5078646;28;20043;-73
2022/04/15 12:36:56;;;;;;;35.08;12.13;;;;;;;;;;5078938;28;20422;-73
2022/04/15 12:39:22;;;;;;;37.85;9.40;;;;;;;;;;5079109;28;20024;-73
2022/04/15 12:41:48;;;;;;;40.20;9.73;;;;;;;;;;5062649;28;20114;-73
2022/04/15 12:44:23;;;;;;;21.95;5.65;;;;;;;;;;5077899;28;20326;-73
2022/04/15 12:46:55;;;;;;;39.03;6.43;;;;;;;;;;5061108;28;20034;-74
2022/04/15 12:49:25;;;;;;;63.22;8.25;;;;;;;;;;5061960;28;20022;-73
2022/04/15 12:51:51;;;;;;;25.17;7.03;;;;;;;;;;5078498;28;20020;-73
2022/04/15 12:54:17;;;;;;;38.28;10.05;;;;;;;;;;5078117;28;20071;-73
2022/04/15 12:56:57;;;;;;;24.52;4.80;;;;;;;;;;5077008;28;20032;-73
2022/04/15 12:59:23;;;;;;;23.67;4.63;;;;;;;;;;5078455;28;20017;-73
2022/04/15 13:01:49;;;;;;;43.10;5.30;;;;;;;;;;5060524;28;20249;-73
2022/04/15 13:04:18;;;;;;;86.82;11.82;;;;;;;;;;5077333;28;20024;-73
2022/04/15 13:06:44;;;;;;;31.15;6.28;;;;;;;;;;5077858;28;20078;-73
2022/04/15 13:09:10;;;;;;;60.55;8.35;;;;;;;;;;5078490;28;20020;-73
2022/04/15 13:11:37;;;;;;;35.05;5.95;;;;;;;;;;5078234;28;20021;-73
2022/04/15 13:14:03;;;;;;;31.02;6.03;;;;;;;;;;5078233;28;20047;-73
2022/04/15 13:16:29;;;;;;;18.30;5.47;;;;;;;;;;5077153;28;20093;-73
2022/04/15 13:18:55;;;;;;;28.08;6.75;;;;;;;;;;5077674;28;20364;-73
2022/04/15 13:21:21;;;;;;;27.50;6.38;;;;;;;;;;5077406;28;20059;-73
2022/04/15 13:23:48;;;;;;;25.23;7.10;;;;;;;;;;5077650;28;20024;-73
2022/04/15 13:26:14;;;;;;;22.23;6.20;;;;;;;;;;5078673;28;20436;-73
2022/04/15 13:28:41;;;;;;;28.10;6.07;;;;;;;;;;5077303;28;20023;-73
2022/04/15 13:31:08;;;;;;;22.77;6.70;;;;;;;;;;5059942;28;20020;-73
2022/04/15 13:33:35;;;;;;;24.75;5.57;;;;;;;;;;5077512;28;20082;-73
2022/04/15 13:36:01;;;;;;;15.63;6.72;;;;;;;;;;5077261;28;20345;-73
2022/04/15 13:38:27;;;;;;;27.38;6.43;;;;;;;;;;5076814;28;20104;-73
2022/04/15 13:40:53;;;;;;;22.95;5.88;;;;;;;;;;5077322;28;20441;-73
2022/04/15 13:43:20;;;;;;;35.05;7.03;;;;;;;;;;5077578;28;20131;-73
2022/04/15 13:45:46;;;;;;;28.55;7.13;;;;;;;;;;5076810;28;20035;-73
2022/04/15 13:48:12;;;;;;;36.17;9.38;;;;;;;;;;5059379;28;20067;-73
2022/04/15 13:50:38;;;;;;;29.80;6.72;;;;;;;;;;5077338;28;20020;-73
2022/04/15 13:58:33;;;;;;;27.40;9.55;;;;;;;;;;5077884;28;20020;-73
2022/04/15 14:01:00;;;;;;;27.45;7.90;;;;;;;;;;5076743;28;20020;-73
2022/04/15 14:03:27;;;;;;;29.17;7.80;;;;;;;;;;5077291;28;20099;-73
2022/04/15 14:05:53;;;;;;;23.88;9.18;;;;;;;;;;5077662;28;20418;-73
2022/04/15 14:08:19;;;;;;;28.17;8.27;;;;;;;;;;5060301;28;20020;-73
2022/04/15 14:10:46;;;;;;;41.60;7.20;;;;;;;;;;5081298;28;20070;-73
2022/04/15 14:13:14;;;;;;;24.90;6.53;;;;;;;;;;5084606;28;20011;-73
2022/04/15 14:15:41;;;;;;;23.80;5.90;;;;;;;;;;5051940;28;20032;-73
2022/04/15 14:18:08;;;;;;;23.10;7.25;;;;;;;;;;5084782;28;20055;-73
2022/04/15 14:20:34;;;;;;;38.67;7.82;;;;;;;;;;5068997;28;20468;-71
2022/04/15 14:23:00;;;;;;;23.88;6.85;;;;;;;;;;5084502;28;20020;-73
2022/04/15 14:25:26;;;;;;;21.48;9.50;;;;;;;;;;5082334;28;20112;-73
2022/04/15 14:27:54;;;;;;;26.63;8.63;;;;;;;;;;5082957;28;20044;-73
2022/04/15 14:30:22;;;;;;;32.65;9.00;;;;;;;;;;5051195;28;20024;-73
2022/04/15 14:32:48;;;;;;;23.98;8.13;;;;;;;;;;5068101;28;20017;-72
2022/04/15 14:35:16;;;;;;;22.55;8.85;;;;;;;;;;5066715;28;20453;-72
2022/04/15 14:37:42;;;;;;;23.50;7.53;;;;;;;;;;5084028;28;20032;-70
2022/04/15 14:40:08;;;;;;;36.65;9.77;;;;;;;;;;5101215;28;20016;-71
2022/04/15 14:42:34;;;;;;;26.20;8.82;;;;;;;;;;5083852;28;20067;-72
2022/04/15 14:45:01;;;;;;;27.67;8.52;;;;;;;;;;5084904;28;20411;-72